sensor_id;sensor_type;location;lat;lon;timestamp;P1;durP1;ratioP1;P2;durP2;ratioP2
62724;SDS011;49026;52.600;4.694;2022-10-31T00:01:21;10.73;;;1.90;;
62724;SDS011;49026;52.600;4.694;2022-10-31T00:03:51;9.02;;;1.67;;
62724;SDS011;49026;52.600;4.694;2022-10-31T00:06:17;11.13;;;1.88;;
62724;SDS011;49026;52.600;4.694;2022-10-31T00:08:44;17.58;;;1.85;;
62724;SDS011;49026;52.600;4.694;2022-10-31T00:11:11;9.80;;;2.17;;
62724;SDS011;49026;52.600;4.694;2022-10-31T00:13:37;7.60;;;1.92;;
62724;SDS011;49026;52.600;4.694;2022-10-31T00:16:05;9.48;;;1.58;;
62724;SDS011;49026;52.600;4.694;2022-10-31T00:18:38;13.18;;;1.92;;
62724;SDS011;49026;52.600;4.694;2022-10-31T00:21:03;15.95;;;2.13;;
62724;SDS011;49026;52.600;4.694;2022-10-31T00:23:28;13.63;;;1.95;;
62724;SDS011;49026;52.600;4.694;2022-10-31T00:25:59;11.02;;;1.90;;
62724;SDS011;49026;52.600;4.694;2022-10-31T00:28:25;12.88;;;2.53;;
62724;SDS011;49026;52.600;4.694;2022-10-31T00:30:50;18.55;;;3.03;;
62724;SDS011;49026;52.600;4.694;2022-10-31T00:33:15;19.35;;;2.90;;
62724;SDS011;49026;52.600;4.694;2022-10-31T00:35:48;13.07;;;2.55;;
62724;SDS011;49026;52.600;4.694;2022-10-31T00:38:14;5.97;;;2.25;;
62724;SDS011;49026;52.600;4.694;2022-10-31T00:40:40;9.45;;;2.38;;
62724;SDS011;49026;52.600;4.694;2022-10-31T00:43:05;8.15;;;2.13;;
62724;SDS011;49026;52.600;4.694;2022-10-31T00:45:30;10.18;;;2.90;;
62724;SDS011;49026;52.600;4.694;2022-10-31T00:47:57;11.18;;;3.53;;
62724;SDS011;49026;52.600;4.694;2022-10-31T00:50:26;6.78;;;2.13;;
62724;SDS011;49026;52.600;4.694;2022-10-31T00:52:51;10.98;;;2.80;;
62724;SDS011;49026;52.600;4.694;2022-10-31T00:55:16;7.85;;;2.15;;
62724;SDS011;49026;52.600;4.694;2022-10-31T00:57:42;10.15;;;2.67;;
62724;SDS011;49026;52.600;4.694;2022-10-31T01:00:07;11.25;;;2.33;;
62724;SDS011;49026;52.600;4.694;2022-10-31T01:02:36;11.75;;;3.08;;
62724;SDS011;49026;52.600;4.694;2022-10-31T01:05:03;8.05;;;2.70;;
62724;SDS011;49026;52.600;4.694;2022-10-31T01:07:29;10.50;;;2.78;;
62724;SDS011;49026;52.600;4.694;2022-10-31T01:09:54;4.90;;;2.35;;
62724;SDS011;49026;52.600;4.694;2022-10-31T01:12:26;9.43;;;2.70;;
62724;SDS011;49026;52.600;4.694;2022-10-31T01:14:52;4.43;;;2.38;;
62724;SDS011;49026;52.600;4.694;2022-10-31T01:17:17;6.68;;;2.65;;
62724;SDS011;49026;52.600;4.694;2022-10-31T01:19:43;8.70;;;3.08;;
62724;SDS011;49026;52.600;4.694;2022-10-31T01:22:09;8.13;;;3.22;;
62724;SDS011;49026;52.600;4.694;2022-10-31T01:24:34;10.55;;;3.00;;
62724;SDS011;49026;52.600;4.694;2022-10-31T01:27:05;10.68;;;3.47;;
62724;SDS011;49026;52.600;4.694;2022-10-31T01:29:32;8.10;;;3.28;;
62724;SDS011;49026;52.600;4.694;2022-10-31T01:31:58;13.00;;;3.72;;
62724;SDS011;49026;52.600;4.694;2022-10-31T01:34:23;8.85;;;3.33;;
62724;SDS011;49026;52.600;4.694;2022-10-31T01:36:48;19.17;;;3.88;;
62724;SDS011;49026;52.600;4.694;2022-10-31T01:39:18;13.70;;;3.63;;
62724;SDS011;49026;52.600;4.694;2022-10-31T01:41:47;8.73;;;3.30;;
62724;SDS011;49026;52.600;4.694;2022-10-31T01:46:57;9.15;;;3.35;;
62724;SDS011;49026;52.600;4.694;2022-10-31T01:49:38;15.05;;;3.08;;
62724;SDS011;49026;52.600;4.694;2022-10-31T01:55:00;10.48;;;3.38;;
62724;SDS011;49026;52.600;4.694;2022-10-31T01:57:28;7.68;;;3.08;;
62724;SDS011;49026;52.600;4.694;2022-10-31T01:59:57;4.90;;;2.95;;
62724;SDS011;49026;52.600;4.694;2022-10-31T02:02:24;11.20;;;5.68;;
62724;SDS011;49026;52.600;4.694;2022-10-31T02:04:51;9.40;;;4.60;;
62724;SDS011;49026;52.600;4.694;2022-10-31T02:07:23;11.27;;;4.93;;
62724;SDS011;49026;52.600;4.694;2022-10-31T02:09:57;12.63;;;4.55;;
62724;SDS011;49026;52.600;4.694;2022-10-31T02:12:28;10.32;;;4.35;;
62724;SDS011;49026;52.600;4.694;2022-10-31T02:14:56;11.77;;;4.15;;
62724;SDS011;49026;52.600;4.694;2022-10-31T02:17:22;11.88;;;4.80;;
62724;SDS011;49026;52.600;4.694;2022-10-31T02:19:56;14.25;;;5.55;;
62724;SDS011;49026;52.600;4.694;2022-10-31T02:31:31;11.50;;;6.18;;
62724;SDS011;49026;52.600;4.694;2022-10-31T02:37:31;13.65;;;6.22;;
62724;SDS011;49026;52.600;4.694;2022-10-31T02:47:47;17.40;;;7.35;;
62724;SDS011;49026;52.600;4.694;2022-10-31T02:50:23;17.20;;;7.72;;
62724;SDS011;49026;52.600;4.694;2022-10-31T02:52:55;15.93;;;8.00;;
62724;SDS011;49026;52.600;4.694;2022-10-31T02:57:52;16.35;;;7.63;;
62724;SDS011;49026;52.600;4.694;2022-10-31T03:00:21;17.90;;;7.35;;
62724;SDS011;49026;52.600;4.694;2022-10-31T03:02:58;15.70;;;8.30;;
62724;SDS011;49026;52.600;4.694;2022-10-31T03:08:16;16.45;;;7.80;;
62724;SDS011;49026;52.600;4.694;2022-10-31T03:11:01;18.85;;;8.27;;
62724;SDS011;49026;52.600;4.694;2022-10-31T03:16:16;20.63;;;9.10;;
62724;SDS011;49026;52.600;4.694;2022-10-31T03:18:50;19.92;;;8.52;;
62724;SDS011;49026;52.600;4.694;2022-10-31T03:21:29;14.43;;;7.95;;
62724;SDS011;49026;52.600;4.694;2022-10-31T03:24:00;14.35;;;7.57;;
62724;SDS011;49026;52.600;4.694;2022-10-31T03:26:34;21.95;;;9.40;;
62724;SDS011;49026;52.600;4.694;2022-10-31T03:29:03;15.68;;;7.90;;
62724;SDS011;49026;52.600;4.694;2022-10-31T03:31:34;23.27;;;9.85;;
62724;SDS011;49026;52.600;4.694;2022-10-31T03:34:02;25.42;;;10.70;;
62724;SDS011;49026;52.600;4.694;2022-10-31T03:36:29;21.60;;;10.50;;
62724;SDS011;49026;52.600;4.694;2022-10-31T03:38:57;20.92;;;11.57;;
62724;SDS011;49026;52.600;4.694;2022-10-31T03:44:01;25.00;;;9.50;;
62724;SDS011;49026;52.600;4.694;2022-10-31T03:46:39;18.85;;;9.02;;
62724;SDS011;49026;52.600;4.694;2022-10-31T03:49:05;27.00;;;10.03;;
62724;SDS011;49026;52.600;4.694;2022-10-31T03:51:38;23.13;;;9.93;;
62724;SDS011;49026;52.600;4.694;2022-10-31T03:54:14;17.95;;;9.40;;
62724;SDS011;49026;52.600;4.694;2022-10-31T03:56:55;25.83;;;10.38;;
62724;SDS011;49026;52.600;4.694;2022-10-31T03:59:35;21.27;;;10.57;;
62724;SDS011;49026;52.600;4.694;2022-10-31T04:02:07;23.73;;;10.55;;
62724;SDS011;49026;52.600;4.694;2022-10-31T04:04:39;25.98;;;11.68;;
62724;SDS011;49026;52.600;4.694;2022-10-31T04:07:04;25.83;;;11.27;;
62724;SDS011;49026;52.600;4.694;2022-10-31T04:09:35;24.92;;;12.02;;
62724;SDS011;49026;52.600;4.694;2022-10-31T04:12:03;19.90;;;10.45;;
62724;SDS011;49026;52.600;4.694;2022-10-31T04:14:33;22.58;;;10.73;;
62724;SDS011;49026;52.600;4.694;2022-10-31T04:17:02;25.00;;;11.77;;
62724;SDS011;49026;52.600;4.694;2022-10-31T04:19:32;30.02;;;12.13;;
62724;SDS011;49026;52.600;4.694;2022-10-31T04:21:58;20.92;;;11.25;;
62724;SDS011;49026;52.600;4.694;2022-10-31T04:24:23;23.30;;;11.88;;
62724;SDS011;49026;52.600;4.694;2022-10-31T04:26:48;30.10;;;11.95;;
62724;SDS011;49026;52.600;4.694;2022-10-31T04:29:14;29.80;;;12.23;;
62724;SDS011;49026;52.600;4.694;2022-10-31T04:31:43;28.63;;;12.68;;
62724;SDS011;49026;52.600;4.694;2022-10-31T04:34:09;25.88;;;11.32;;
62724;SDS011;49026;52.600;4.694;2022-10-31T04:36:34;34.40;;;11.60;;
62724;SDS011;49026;52.600;4.694;2022-10-31T04:39:01;21.20;;;11.25;;
62724;SDS011;49026;52.600;4.694;2022-10-31T04:41:27;23.73;;;10.13;;
62724;SDS011;49026;52.600;4.694;2022-10-31T04:43:52;18.35;;;11.02;;
62724;SDS011;49026;52.600;4.694;2022-10-31T04:46:20;23.42;;;11.00;;
62724;SDS011;49026;52.600;4.694;2022-10-31T04:48:45;24.90;;;10.50;;
62724;SDS011;49026;52.600;4.694;2022-10-31T04:51:12;22.90;;;10.63;;
62724;SDS011;49026;52.600;4.694;2022-10-31T04:53:38;17.58;;;9.95;;
62724;SDS011;49026;52.600;4.694;2022-10-31T04:56:03;15.30;;;9.82;;
62724;SDS011;49026;52.600;4.694;2022-10-31T04:58:28;15.48;;;8.70;;
62724;SDS011;49026;52.600;4.694;2022-10-31T05:00:54;22.02;;;11.00;;
62724;SDS011;49026;52.600;4.694;2022-10-31T05:03:20;15.57;;;9.55;;
62724;SDS011;49026;52.600;4.694;2022-10-31T05:05:46;15.85;;;9.55;;
62724;SDS011;49026;52.600;4.694;2022-10-31T05:08:12;21.80;;;11.23;;
62724;SDS011;49026;52.600;4.694;2022-10-31T05:10:37;13.85;;;9.93;;
62724;SDS011;49026;52.600;4.694;2022-10-31T05:13:03;19.05;;;11.05;;
62724;SDS011;49026;52.600;4.694;2022-10-31T05:15:29;13.60;;;9.77;;
62724;SDS011;49026;52.600;4.694;2022-10-31T05:17:55;12.43;;;9.38;;
62724;SDS011;49026;52.600;4.694;2022-10-31T05:20:23;16.63;;;10.90;;
62724;SDS011;49026;52.600;4.694;2022-10-31T05:22:52;16.67;;;11.00;;
62724;SDS011;49026;52.600;4.694;2022-10-31T05:25:21;14.80;;;10.10;;
62724;SDS011;49026;52.600;4.694;2022-10-31T05:27:49;13.88;;;8.65;;
62724;SDS011;49026;52.600;4.694;2022-10-31T05:30:17;17.02;;;11.40;;
62724;SDS011;49026;52.600;4.694;2022-10-31T05:32:47;18.25;;;11.65;;
62724;SDS011;49026;52.600;4.694;2022-10-31T05:35:18;17.15;;;11.90;;
62724;SDS011;49026;52.600;4.694;2022-10-31T05:37:45;21.17;;;12.82;;
62724;SDS011;49026;52.600;4.694;2022-10-31T05:40:11;20.50;;;11.38;;
62724;SDS011;49026;52.600;4.694;2022-10-31T05:42:38;19.00;;;13.30;;
62724;SDS011;49026;52.600;4.694;2022-10-31T05:45:05;17.63;;;12.70;;
62724;SDS011;49026;52.600;4.694;2022-10-31T05:47:31;18.05;;;11.68;;
62724;SDS011;49026;52.600;4.694;2022-10-31T05:49:56;23.98;;;13.23;;
62724;SDS011;49026;52.600;4.694;2022-10-31T05:52:24;18.42;;;13.68;;
62724;SDS011;49026;52.600;4.694;2022-10-31T05:54:49;28.63;;;14.38;;
62724;SDS011;49026;52.600;4.694;2022-10-31T05:57:14;21.20;;;13.50;;
62724;SDS011;49026;52.600;4.694;2022-10-31T05:59:40;18.02;;;11.98;;
62724;SDS011;49026;52.600;4.694;2022-10-31T06:02:05;18.08;;;12.05;;
62724;SDS011;49026;52.600;4.694;2022-10-31T06:04:33;19.83;;;10.93;;
62724;SDS011;49026;52.600;4.694;2022-10-31T06:07:00;23.35;;;11.57;;
62724;SDS011;49026;52.600;4.694;2022-10-31T06:09:25;21.42;;;11.65;;
62724;SDS011;49026;52.600;4.694;2022-10-31T06:11:51;18.50;;;12.07;;
62724;SDS011;49026;52.600;4.694;2022-10-31T06:14:16;24.83;;;13.60;;
62724;SDS011;49026;52.600;4.694;2022-10-31T06:16:44;27.35;;;14.55;;
62724;SDS011;49026;52.600;4.694;2022-10-31T06:19:09;21.60;;;13.82;;
62724;SDS011;49026;52.600;4.694;2022-10-31T06:21:34;27.50;;;14.25;;
62724;SDS011;49026;52.600;4.694;2022-10-31T06:23:59;20.92;;;13.52;;
62724;SDS011;49026;52.600;4.694;2022-10-31T06:26:27;27.73;;;15.68;;
62724;SDS011;49026;52.600;4.694;2022-10-31T06:28:52;31.50;;;15.27;;
62724;SDS011;49026;52.600;4.694;2022-10-31T06:31:20;28.98;;;16.15;;
62724;SDS011;49026;52.600;4.694;2022-10-31T06:33:46;30.48;;;14.52;;
62724;SDS011;49026;52.600;4.694;2022-10-31T06:36:11;35.90;;;16.27;;
62724;SDS011;49026;52.600;4.694;2022-10-31T06:38:36;28.48;;;14.82;;
62724;SDS011;49026;52.600;4.694;2022-10-31T06:41:04;23.95;;;14.68;;
62724;SDS011;49026;52.600;4.694;2022-10-31T06:43:34;27.23;;;14.98;;
62724;SDS011;49026;52.600;4.694;2022-10-31T06:46:03;29.40;;;14.10;;
62724;SDS011;49026;52.600;4.694;2022-10-31T06:48:29;27.50;;;14.32;;
62724;SDS011;49026;52.600;4.694;2022-10-31T06:50:58;27.50;;;13.40;;
62724;SDS011;49026;52.600;4.694;2022-10-31T06:53:24;26.48;;;13.85;;
62724;SDS011;49026;52.600;4.694;2022-10-31T06:55:50;32.08;;;15.85;;
62724;SDS011;49026;52.600;4.694;2022-10-31T06:58:18;28.00;;;15.20;;
62724;SDS011;49026;52.600;4.694;2022-10-31T07:00:43;36.92;;;17.45;;
62724;SDS011;49026;52.600;4.694;2022-10-31T07:03:10;36.28;;;18.10;;
62724;SDS011;49026;52.600;4.694;2022-10-31T07:05:39;42.88;;;19.67;;
62724;SDS011;49026;52.600;4.694;2022-10-31T07:08:09;42.97;;;20.83;;
62724;SDS011;49026;52.600;4.694;2022-10-31T07:10:37;50.85;;;21.80;;
62724;SDS011;49026;52.600;4.694;2022-10-31T07:13:05;58.65;;;21.67;;
62724;SDS011;49026;52.600;4.694;2022-10-31T07:15:35;39.70;;;18.33;;
62724;SDS011;49026;52.600;4.694;2022-10-31T07:18:02;52.35;;;21.83;;
62724;SDS011;49026;52.600;4.694;2022-10-31T07:20:29;57.00;;;24.17;;
62724;SDS011;49026;52.600;4.694;2022-10-31T07:22:54;66.88;;;25.77;;
62724;SDS011;49026;52.600;4.694;2022-10-31T07:25:22;57.63;;;24.20;;
62724;SDS011;49026;52.600;4.694;2022-10-31T07:27:48;46.35;;;22.27;;
62724;SDS011;49026;52.600;4.694;2022-10-31T07:30:14;55.38;;;25.13;;
62724;SDS011;49026;52.600;4.694;2022-10-31T07:32:45;45.25;;;21.65;;
62724;SDS011;49026;52.600;4.694;2022-10-31T07:35:13;40.80;;;22.58;;
62724;SDS011;49026;52.600;4.694;2022-10-31T07:37:39;38.72;;;21.73;;
62724;SDS011;49026;52.600;4.694;2022-10-31T07:40:06;34.28;;;18.17;;
62724;SDS011;49026;52.600;4.694;2022-10-31T07:42:38;27.50;;;16.95;;
62724;SDS011;49026;52.600;4.694;2022-10-31T07:45:08;26.27;;;16.30;;
62724;SDS011;49026;52.600;4.694;2022-10-31T07:47:42;18.85;;;11.40;;
62724;SDS011;49026;52.600;4.694;2022-10-31T07:50:13;34.17;;;18.33;;
62724;SDS011;49026;52.600;4.694;2022-10-31T07:52:40;31.90;;;17.33;;
62724;SDS011;49026;52.600;4.694;2022-10-31T07:55:06;29.50;;;17.35;;
62724;SDS011;49026;52.600;4.694;2022-10-31T07:57:32;27.50;;;16.90;;
62724;SDS011;49026;52.600;4.694;2022-10-31T07:59:58;22.20;;;14.25;;
62724;SDS011;49026;52.600;4.694;2022-10-31T08:02:26;23.30;;;15.15;;
62724;SDS011;49026;52.600;4.694;2022-10-31T08:04:54;22.95;;;14.40;;
62724;SDS011;49026;52.600;4.694;2022-10-31T08:07:22;25.00;;;15.15;;
62724;SDS011;49026;52.600;4.694;2022-10-31T08:09:47;22.50;;;14.07;;
62724;SDS011;49026;52.600;4.694;2022-10-31T08:12:13;21.10;;;14.38;;
62724;SDS011;49026;52.600;4.694;2022-10-31T08:14:38;21.85;;;14.55;;
62724;SDS011;49026;52.600;4.694;2022-10-31T08:17:03;21.00;;;15.57;;
62724;SDS011;49026;52.600;4.694;2022-10-31T08:19:31;25.40;;;15.40;;
62724;SDS011;49026;52.600;4.694;2022-10-31T08:21:56;24.40;;;16.88;;
62724;SDS011;49026;52.600;4.694;2022-10-31T08:24:24;23.80;;;14.82;;
62724;SDS011;49026;52.600;4.694;2022-10-31T08:26:49;22.13;;;16.15;;
62724;SDS011;49026;52.600;4.694;2022-10-31T08:29:14;24.45;;;14.55;;
62724;SDS011;49026;52.600;4.694;2022-10-31T08:31:40;24.58;;;14.48;;
62724;SDS011;49026;52.600;4.694;2022-10-31T08:34:06;22.20;;;14.48;;
62724;SDS011;49026;52.600;4.694;2022-10-31T08:36:32;18.40;;;13.02;;
62724;SDS011;49026;52.600;4.694;2022-10-31T08:38:57;18.50;;;12.20;;
62724;SDS011;49026;52.600;4.694;2022-10-31T08:41:26;24.30;;;14.43;;
62724;SDS011;49026;52.600;4.694;2022-10-31T08:43:51;21.50;;;12.93;;
62724;SDS011;49026;52.600;4.694;2022-10-31T08:46:16;26.13;;;13.60;;
62724;SDS011;49026;52.600;4.694;2022-10-31T08:48:42;21.08;;;13.50;;
62724;SDS011;49026;52.600;4.694;2022-10-31T08:51:08;30.63;;;14.20;;
62724;SDS011;49026;52.600;4.694;2022-10-31T08:53:34;15.10;;;8.23;;
62724;SDS011;49026;52.600;4.694;2022-10-31T08:56:04;23.63;;;13.43;;
62724;SDS011;49026;52.600;4.694;2022-10-31T08:58:29;21.13;;;13.57;;
62724;SDS011;49026;52.600;4.694;2022-10-31T09:00:58;26.23;;;14.15;;
62724;SDS011;49026;52.600;4.694;2022-10-31T09:03:25;57.40;;;30.65;;
62724;SDS011;49026;52.600;4.694;2022-10-31T09:05:56;21.27;;;14.10;;
62724;SDS011;49026;52.600;4.694;2022-10-31T09:08:23;25.80;;;15.82;;
62724;SDS011;49026;52.600;4.694;2022-10-31T09:10:48;16.63;;;10.98;;
62724;SDS011;49026;52.600;4.694;2022-10-31T09:13:18;19.20;;;14.65;;
62724;SDS011;49026;52.600;4.694;2022-10-31T09:15:45;21.20;;;13.35;;
62724;SDS011;49026;52.600;4.694;2022-10-31T09:18:12;16.77;;;11.63;;
62724;SDS011;49026;52.600;4.694;2022-10-31T09:20:42;21.80;;;14.55;;
62724;SDS011;49026;52.600;4.694;2022-10-31T09:23:16;25.00;;;14.50;;
62724;SDS011;49026;52.600;4.694;2022-10-31T09:25:43;19.13;;;12.85;;
62724;SDS011;49026;52.600;4.694;2022-10-31T09:28:10;22.55;;;13.77;;
62724;SDS011;49026;52.600;4.694;2022-10-31T09:30:40;19.88;;;12.23;;
62724;SDS011;49026;52.600;4.694;2022-10-31T09:33:12;19.85;;;12.57;;
62724;SDS011;49026;52.600;4.694;2022-10-31T09:35:38;21.73;;;13.40;;
62724;SDS011;49026;52.600;4.694;2022-10-31T09:38:05;20.95;;;12.50;;
62724;SDS011;49026;52.600;4.694;2022-10-31T09:40:40;18.90;;;10.70;;
62724;SDS011;49026;52.600;4.694;2022-10-31T09:51:51;14.88;;;9.02;;
62724;SDS011;49026;52.600;4.694;2022-10-31T09:57:14;15.98;;;10.25;;
62724;SDS011;49026;52.600;4.694;2022-10-31T09:59:43;15.80;;;10.20;;
62724;SDS011;49026;52.600;4.694;2022-10-31T10:05:02;12.48;;;8.50;;
62724;SDS011;49026;52.600;4.694;2022-10-31T10:10:23;20.10;;;8.75;;
62724;SDS011;49026;52.600;4.694;2022-10-31T10:18:43;14.32;;;8.82;;
62724;SDS011;49026;52.600;4.694;2022-10-31T10:26:49;15.35;;;9.48;;
62724;SDS011;49026;52.600;4.694;2022-10-31T10:29:40;17.23;;;9.18;;
62724;SDS011;49026;52.600;4.694;2022-10-31T10:32:11;17.65;;;9.30;;
62724;SDS011;49026;52.600;4.694;2022-10-31T10:34:52;14.20;;;8.23;;
62724;SDS011;49026;52.600;4.694;2022-10-31T10:37:30;12.98;;;7.05;;
62724;SDS011;49026;52.600;4.694;2022-10-31T10:42:45;11.73;;;7.70;;
62724;SDS011;49026;52.600;4.694;2022-10-31T10:45:39;12.02;;;7.20;;
62724;SDS011;49026;52.600;4.694;2022-10-31T10:50:55;15.10;;;6.65;;
62724;SDS011;49026;52.600;4.694;2022-10-31T10:56:56;13.20;;;6.13;;
62724;SDS011;49026;52.600;4.694;2022-10-31T10:59:12;13.23;;;6.22;;
62724;SDS011;49026;52.600;4.694;2022-10-31T11:09:33;15.00;;;6.72;;
62724;SDS011;49026;52.600;4.694;2022-10-31T11:12:00;9.57;;;5.07;;
62724;SDS011;49026;52.600;4.694;2022-10-31T11:14:35;9.88;;;5.72;;
62724;SDS011;49026;52.600;4.694;2022-10-31T11:17:10;16.80;;;7.93;;
62724;SDS011;49026;52.600;4.694;2022-10-31T11:19:44;15.02;;;8.25;;
62724;SDS011;49026;52.600;4.694;2022-10-31T11:22:14;21.40;;;9.70;;
62724;SDS011;49026;52.600;4.694;2022-10-31T11:24:42;15.60;;;8.73;;
62724;SDS011;49026;52.600;4.694;2022-10-31T11:27:13;14.25;;;7.35;;
62724;SDS011;49026;52.600;4.694;2022-10-31T11:29:38;22.08;;;11.10;;
62724;SDS011;49026;52.600;4.694;2022-10-31T11:32:03;18.17;;;10.68;;
62724;SDS011;49026;52.600;4.694;2022-10-31T11:34:33;22.42;;;11.73;;
62724;SDS011;49026;52.600;4.694;2022-10-31T11:37:03;18.02;;;9.15;;
62724;SDS011;49026;52.600;4.694;2022-10-31T11:39:41;16.85;;;10.55;;
62724;SDS011;49026;52.600;4.694;2022-10-31T11:42:10;19.42;;;9.40;;
62724;SDS011;49026;52.600;4.694;2022-10-31T11:44:36;19.13;;;10.30;;
62724;SDS011;49026;52.600;4.694;2022-10-31T11:47:10;18.30;;;8.40;;
62724;SDS011;49026;52.600;4.694;2022-10-31T11:49:41;19.17;;;9.85;;
62724;SDS011;49026;52.600;4.694;2022-10-31T11:54:44;13.77;;;8.80;;
62724;SDS011;49026;52.600;4.694;2022-10-31T11:59:54;12.88;;;6.88;;
62724;SDS011;49026;52.600;4.694;2022-10-31T12:02:21;9.68;;;5.55;;
62724;SDS011;49026;52.600;4.694;2022-10-31T12:05:17;13.23;;;4.15;;
62724;SDS011;49026;52.600;4.694;2022-10-31T12:07:50;6.10;;;3.67;;
62724;SDS011;49026;52.600;4.694;2022-10-31T12:10:15;9.85;;;4.03;;
62724;SDS011;49026;52.600;4.694;2022-10-31T12:12:50;9.68;;;3.92;;
62724;SDS011;49026;52.600;4.694;2022-10-31T12:15:27;8.38;;;3.95;;
62724;SDS011;49026;52.600;4.694;2022-10-31T12:18:08;8.35;;;3.42;;
62724;SDS011;49026;52.600;4.694;2022-10-31T12:23:47;7.05;;;3.78;;
62724;SDS011;49026;52.600;4.694;2022-10-31T12:40:15;13.00;;;5.13;;
62724;SDS011;49026;52.600;4.694;2022-10-31T12:45:55;9.25;;;5.30;;
62724;SDS011;49026;52.600;4.694;2022-10-31T12:56:58;10.52;;;4.88;;
62724;SDS011;49026;52.600;4.694;2022-10-31T12:59:43;7.97;;;4.97;;
62724;SDS011;49026;52.600;4.694;2022-10-31T13:02:23;10.52;;;5.72;;
62724;SDS011;49026;52.600;4.694;2022-10-31T13:07:40;8.70;;;4.97;;
62724;SDS011;49026;52.600;4.694;2022-10-31T13:12:37;8.52;;;4.88;;
62724;SDS011;49026;52.600;4.694;2022-10-31T13:15:05;10.35;;;5.97;;
62724;SDS011;49026;52.600;4.694;2022-10-31T13:17:50;12.35;;;7.22;;
62724;SDS011;49026;52.600;4.694;2022-10-31T13:20:24;11.88;;;7.53;;
62724;SDS011;49026;52.600;4.694;2022-10-31T13:22:56;9.63;;;5.30;;
62724;SDS011;49026;52.600;4.694;2022-10-31T13:25:41;15.02;;;8.20;;
62724;SDS011;49026;52.600;4.694;2022-10-31T13:30:43;11.45;;;6.55;;
62724;SDS011;49026;52.600;4.694;2022-10-31T13:33:14;15.70;;;8.68;;
62724;SDS011;49026;52.600;4.694;2022-10-31T13:35:51;13.73;;;7.47;;
62724;SDS011;49026;52.600;4.694;2022-10-31T13:40:59;14.57;;;8.23;;
62724;SDS011;49026;52.600;4.694;2022-10-31T13:46:23;12.07;;;7.80;;
62724;SDS011;49026;52.600;4.694;2022-10-31T13:48:48;17.60;;;9.40;;
62724;SDS011;49026;52.600;4.694;2022-10-31T13:51:13;19.52;;;9.70;;
62724;SDS011;49026;52.600;4.694;2022-10-31T14:01:34;19.58;;;11.23;;
62724;SDS011;49026;52.600;4.694;2022-10-31T14:04:07;24.50;;;12.18;;
62724;SDS011;49026;52.600;4.694;2022-10-31T14:09:38;14.38;;;8.95;;
62724;SDS011;49026;52.600;4.694;2022-10-31T14:12:29;23.83;;;13.68;;
62724;SDS011;49026;52.600;4.694;2022-10-31T14:14:57;23.23;;;12.60;;
62724;SDS011;49026;52.600;4.694;2022-10-31T14:17:28;27.67;;;16.35;;
62724;SDS011;49026;52.600;4.694;2022-10-31T14:20:01;27.25;;;13.32;;
62724;SDS011;49026;52.600;4.694;2022-10-31T14:22:31;25.15;;;13.13;;
62724;SDS011;49026;52.600;4.694;2022-10-31T14:24:58;26.73;;;13.13;;
62724;SDS011;49026;52.600;4.694;2022-10-31T14:29:51;28.15;;;13.98;;
62724;SDS011;49026;52.600;4.694;2022-10-31T14:32:22;26.27;;;13.48;;
62724;SDS011;49026;52.600;4.694;2022-10-31T14:46:04;22.60;;;12.45;;
62724;SDS011;49026;52.600;4.694;2022-10-31T14:51:32;25.08;;;14.23;;
62724;SDS011;49026;52.600;4.694;2022-10-31T14:54:01;22.13;;;11.23;;
62724;SDS011;49026;52.600;4.694;2022-10-31T14:56:34;24.08;;;13.90;;
62724;SDS011;49026;52.600;4.694;2022-10-31T14:59:26;28.45;;;13.27;;
62724;SDS011;49026;52.600;4.694;2022-10-31T15:01:53;21.38;;;11.38;;
62724;SDS011;49026;52.600;4.694;2022-10-31T15:04:25;21.23;;;11.48;;
62724;SDS011;49026;52.600;4.694;2022-10-31T15:09:37;20.33;;;11.27;;
62724;SDS011;49026;52.600;4.694;2022-10-31T15:12:25;22.52;;;10.35;;
62724;SDS011;49026;52.600;4.694;2022-10-31T15:14:53;15.57;;;8.10;;
62724;SDS011;49026;52.600;4.694;2022-10-31T15:17:20;20.42;;;9.40;;
62724;SDS011;49026;52.600;4.694;2022-10-31T15:19:46;20.73;;;10.23;;
62724;SDS011;49026;52.600;4.694;2022-10-31T15:22:14;22.50;;;9.73;;
62724;SDS011;49026;52.600;4.694;2022-10-31T15:24:40;18.67;;;9.07;;
62724;SDS011;49026;52.600;4.694;2022-10-31T15:27:16;21.42;;;10.43;;
62724;SDS011;49026;52.600;4.694;2022-10-31T15:29:49;20.35;;;10.43;;
62724;SDS011;49026;52.600;4.694;2022-10-31T15:32:28;22.45;;;11.90;;
62724;SDS011;49026;52.600;4.694;2022-10-31T15:34:54;22.63;;;11.77;;
62724;SDS011;49026;52.600;4.694;2022-10-31T15:37:22;18.27;;;9.52;;
62724;SDS011;49026;52.600;4.694;2022-10-31T15:39:49;24.38;;;11.98;;
62724;SDS011;49026;52.600;4.694;2022-10-31T15:42:22;24.30;;;12.88;;
62724;SDS011;49026;52.600;4.694;2022-10-31T15:44:55;23.42;;;11.57;;
62724;SDS011;49026;52.600;4.694;2022-10-31T15:47:25;28.45;;;13.77;;
62724;SDS011;49026;52.600;4.694;2022-10-31T15:49:55;25.83;;;13.55;;
62724;SDS011;49026;52.600;4.694;2022-10-31T15:54:50;22.92;;;12.43;;
62724;SDS011;49026;52.600;4.694;2022-10-31T15:57:18;28.30;;;13.13;;
62724;SDS011;49026;52.600;4.694;2022-10-31T15:59:45;25.25;;;13.63;;
62724;SDS011;49026;52.600;4.694;2022-10-31T16:02:12;27.15;;;13.18;;
62724;SDS011;49026;52.600;4.694;2022-10-31T16:07:47;20.52;;;8.75;;
62724;SDS011;49026;52.600;4.694;2022-10-31T16:10:21;22.88;;;12.82;;
62724;SDS011;49026;52.600;4.694;2022-10-31T16:12:50;16.25;;;8.80;;
62724;SDS011;49026;52.600;4.694;2022-10-31T16:15:16;26.83;;;13.35;;
62724;SDS011;49026;52.600;4.694;2022-10-31T16:17:44;32.85;;;15.10;;
62724;SDS011;49026;52.600;4.694;2022-10-31T16:20:21;26.47;;;13.43;;
62724;SDS011;49026;52.600;4.694;2022-10-31T16:22:50;26.75;;;12.07;;
62724;SDS011;49026;52.600;4.694;2022-10-31T16:25:22;29.85;;;12.65;;
62724;SDS011;49026;52.600;4.694;2022-10-31T16:27:52;20.65;;;11.30;;
62724;SDS011;49026;52.600;4.694;2022-10-31T16:33:03;24.48;;;14.43;;
62724;SDS011;49026;52.600;4.694;2022-10-31T16:35:34;20.75;;;10.43;;
62724;SDS011;49026;52.600;4.694;2022-10-31T16:38:01;12.60;;;6.30;;
62724;SDS011;49026;52.600;4.694;2022-10-31T16:40:27;18.60;;;10.23;;
62724;SDS011;49026;52.600;4.694;2022-10-31T16:42:53;23.90;;;13.18;;
62724;SDS011;49026;52.600;4.694;2022-10-31T16:45:23;27.77;;;10.27;;
62724;SDS011;49026;52.600;4.694;2022-10-31T16:47:51;28.73;;;13.77;;
62724;SDS011;49026;52.600;4.694;2022-10-31T16:50:22;22.90;;;12.88;;
62724;SDS011;49026;52.600;4.694;2022-10-31T16:52:49;23.20;;;12.35;;
62724;SDS011;49026;52.600;4.694;2022-10-31T16:55:16;32.30;;;13.30;;
62724;SDS011;49026;52.600;4.694;2022-10-31T16:57:46;27.55;;;10.40;;
62724;SDS011;49026;52.600;4.694;2022-10-31T17:00:14;24.30;;;12.40;;
62724;SDS011;49026;52.600;4.694;2022-10-31T17:02:41;24.75;;;13.15;;
62724;SDS011;49026;52.600;4.694;2022-10-31T17:05:09;27.02;;;14.32;;
62724;SDS011;49026;52.600;4.694;2022-10-31T17:07:39;21.98;;;11.65;;
62724;SDS011;49026;52.600;4.694;2022-10-31T17:10:05;29.35;;;13.70;;
62724;SDS011;49026;52.600;4.694;2022-10-31T17:12:32;28.00;;;14.77;;
62724;SDS011;49026;52.600;4.694;2022-10-31T17:15:00;17.10;;;8.82;;
62724;SDS011;49026;52.600;4.694;2022-10-31T17:17:26;22.92;;;13.30;;
62724;SDS011;49026;52.600;4.694;2022-10-31T17:19:51;28.35;;;13.82;;
62724;SDS011;49026;52.600;4.694;2022-10-31T17:22:16;28.45;;;11.55;;
62724;SDS011;49026;52.600;4.694;2022-10-31T17:24:42;30.88;;;13.77;;
62724;SDS011;49026;52.600;4.694;2022-10-31T17:27:07;23.40;;;10.88;;